Time;durP1;ratioP1;P1;durP2;ratioP2;P2;SDS_P1;SDS_P2;PMS_P1;PMS_P2;Temp;Humidity;BMP_temperature;BMP_pressure;BME280_temperature;BME280_humidity;BME280_pressure;Samples;Min_cycle;Max_cycle;Signal;HPM_P1;HPM_P2
2020/12/15 00:00:38;;;;;;;;;;;4.90;99.90;;;;;;5105024;27;19924;-69
2020/12/15 00:03:04;;;;;;;;;;;4.90;99.90;;;;;;5110029;28;19954;-72
2020/12/15 00:05:31;;;;;;;;;;;4.90;99.90;;;;;;5104783;28;19924;-72
2020/12/15 00:07:58;;;;;;;;;;;4.90;99.90;;;;;;5102098;27;20389;-79
2020/12/15 00:10:24;;;;;;;;;;;5.00;99.90;;;;;;5112539;28;20273;-71
2020/12/15 00:12:50;;;;;;;;;;;5.00;99.90;;;;;;5114619;28;19955;-71
2020/12/15 00:15:17;;;;;;;;;;;5.00;99.90;;;;;;5105605;28;19927;-71
2020/12/15 00:17:43;;;;;;;;;;;5.10;99.90;;;;;;5115863;28;19946;-71
2020/12/15 00:20:10;;;;;;;;;;;5.20;99.90;;;;;;5112316;28;19923;-71
2020/12/15 00:22:37;;;;;;;;;;;5.20;99.90;;;;;;5102390;27;20442;-71
2020/12/15 00:25:04;;;;;;;;;;;5.30;99.90;;;;;;5100368;27;19966;-71
2020/12/15 00:27:30;;;;;;;;;;;5.30;99.90;;;;;;5115952;28;20283;-72
2020/12/15 00:29:57;;;;;;;;;;;5.40;99.90;;;;;;5103763;28;19977;-71
2020/12/15 00:32:23;;;;;;;;;;;5.30;99.90;;;;;;5091541;28;19972;-71
2020/12/15 00:34:50;;;;;;;;;;;5.40;99.90;;;;;;5114528;28;19977;-71
2020/12/15 00:37:16;;;;;;;;;;;5.40;99.90;;;;;;5110626;27;20395;-70
2020/12/15 00:39:43;;;;;;;;;;;5.30;99.90;;;;;;5115157;28;19977;-70
2020/12/15 00:42:09;;;;;;;;;;;5.30;99.90;;;;;;5111609;27;19946;-70
2020/12/15 00:44:36;;;;;;;;;;;5.30;99.90;;;;;;5102212;28;19954;-70
2020/12/15 00:47:03;;;;;;;;;;;5.30;99.90;;;;;;5103061;27;20027;-70
2020/12/15 00:49:30;;;;;;;;;;;5.30;99.90;;;;;;5114156;28;19931;-70
2020/12/15 00:51:56;;;;;;;;;;;5.20;99.90;;;;;;5110855;28;20018;-70
2020/12/15 00:54:23;;;;;;;;;;;5.10;99.90;;;;;;5114475;27;19927;-70
2020/12/15 00:56:51;;;;;;;;;;;5.10;99.90;;;;;;5108575;28;20022;-70
2020/12/15 00:59:17;;;;;;;;;;;5.10;99.90;;;;;;5117393;27;20115;-72
2020/12/15 01:01:44;;;;;;;;;;;5.10;99.90;;;;;;5099087;27;19942;-71
2020/12/15 01:04:12;;;;;;;;;;;5.10;99.90;;;;;;5113185;28;19924;-72
2020/12/15 01:06:38;;;;;;;;;;;5.00;99.90;;;;;;5109593;28;20318;-72
2020/12/15 01:09:07;;;;;;;;;;;5.00;99.90;;;;;;5104388;28;19931;-70
2020/12/15 01:11:34;;;;;;;;;;;5.00;99.90;;;;;;5097603;28;19931;-70
2020/12/15 01:14:05;;;;;;;;;;;5.00;99.90;;;;;;5109663;28;20352;-70
2020/12/15 01:16:35;;;;;;;;;;;5.00;99.90;;;;;;5113893;28;19967;-70
2020/12/15 01:19:03;;;;;;;;;;;5.00;99.90;;;;;;5109998;28;20444;-70
2020/12/15 01:21:33;;;;;;;;;;;5.00;99.90;;;;;;5112087;28;20019;-72
2020/12/15 01:24:02;;;;;;;;;;;5.10;99.90;;;;;;5093564;28;20284;-70
2020/12/15 01:26:30;;;;;;;;;;;5.10;99.90;;;;;;5091884;28;19932;-70
2020/12/15 01:28:58;;;;;;;;;;;5.20;99.90;;;;;;5103637;28;20006;-78
2020/12/15 01:31:26;;;;;;;;;;;5.20;99.90;;;;;;5113609;28;19924;-72
2020/12/15 01:34:00;;;;;;;;;;;5.20;99.90;;;;;;5097919;28;19925;-71
2020/12/15 01:36:40;;;;;;;;;;;5.30;99.90;;;;;;5098976;28;19936;-70
2020/12/15 01:39:08;;;;;;;;;;;5.30;99.90;;;;;;5097804;28;20361;-71
2020/12/15 01:41:47;;;;;;;;;;;5.30;99.90;;;;;;5107320;28;19934;-70
2020/12/15 01:44:16;;;;;;;;;;;5.30;99.90;;;;;;5100606;28;19934;-70
2020/12/15 01:46:46;;;;;;;;;;;5.40;99.90;;;;;;5092139;28;20368;-71
2020/12/15 01:49:13;;;;;;;;;;;5.40;99.90;;;;;;5105985;28;19931;-71
2020/12/15 01:51:50;;;;;;;;;;;5.40;99.90;;;;;;5108198;28;19935;-71
2020/12/15 01:54:20;;;;;;;;;;;5.40;99.90;;;;;;5097535;28;20281;-71
2020/12/15 01:56:50;;;;;;;;;;;5.40;99.90;;;;;;5111327;28;19923;-69
2020/12/15 01:59:22;;;;;;;;;;;5.40;99.90;;;;;;5104598;28;19934;-71
2020/12/15 02:01:53;;;;;;;;;;;5.40;99.90;;;;;;5107790;27;19924;-71
2020/12/15 02:04:30;;;;;;;;;;;5.40;99.90;;;;;;5097106;28;19924;-71
2020/12/15 02:07:05;;;;;;;;;;;5.30;99.90;;;;;;5107329;28;19931;-71
2020/12/15 02:09:33;;;;;;;;;;;5.30;99.90;;;;;;5105413;28;19928;-72
2020/12/15 02:12:20;;;;;;;;;;;5.20;99.90;;;;;;5102917;28;20245;-70
2020/12/15 02:14:47;;;;;;;;;;;5.20;99.90;;;;;;5096565;28;20280;-70
2020/12/15 02:17:27;;;;;;;;;;;5.20;99.90;;;;;;5109738;28;19931;-74
2020/12/15 02:20:14;;;;;;;;;;;5.20;99.90;;;;;;5105027;28;19924;-71
2020/12/15 02:23:05;;;;;;;;;;;5.10;99.90;;;;;;5110211;28;20385;-71
2020/12/15 02:25:38;;;;;;;;;;;5.10;99.90;;;;;;5103324;28;20269;-71
2020/12/15 02:28:05;;;;;;;;;;;5.00;99.90;;;;;;5108976;27;19923;-72
2020/12/15 02:30:31;;;;;;;;;;;5.00;99.90;;;;;;5089560;28;19924;-70
2020/12/15 02:33:02;;;;;;;;;;;5.00;99.90;;;;;;5092261;28;19924;-72
2020/12/15 02:35:33;;;;;;;;;;;4.90;99.90;;;;;;5091445;28;20027;-71
2020/12/15 02:37:59;;;;;;;;;;;4.90;99.90;;;;;;5099612;27;19930;-74
2020/12/15 02:40:29;;;;;;;;;;;4.90;99.90;;;;;;5109469;28;19919;-71
2020/12/15 02:43:15;;;;;;;;;;;4.80;99.90;;;;;;5110931;27;19930;-72
2020/12/15 02:45:48;;;;;;;;;;;4.80;99.90;;;;;;5110233;28;19935;-69
2020/12/15 02:48:19;;;;;;;;;;;4.80;99.90;;;;;;5111299;28;19935;-70
2020/12/15 02:50:47;;;;;;;;;;;4.90;99.90;;;;;;5094335;28;19928;-79
2020/12/15 02:53:23;;;;;;;;;;;4.80;99.90;;;;;;5091565;28;20319;-71
2020/12/15 02:55:54;;;;;;;;;;;4.80;99.90;;;;;;5094117;27;19924;-71
2020/12/15 02:58:27;;;;;;;;;;;4.90;99.90;;;;;;5102403;28;19920;-79
2020/12/15 03:00:55;;;;;;;;;;;4.90;99.90;;;;;;5105604;27;20266;-79
2020/12/15 03:03:24;;;;;;;;;;;4.90;99.90;;;;;;5112295;28;19920;-70
2020/12/15 03:06:09;;;;;;;;;;;4.90;99.90;;;;;;5108679;28;20040;-71
2020/12/15 03:08:35;;;;;;;;;;;4.80;99.90;;;;;;5090876;28;19955;-71
2020/12/15 03:11:04;;;;;;;;;;;4.80;99.90;;;;;;5091143;28;20304;-77
2020/12/15 03:13:33;;;;;;;;;;;4.80;99.90;;;;;;5106043;28;19969;-70
2020/12/15 03:15:59;;;;;;;;;;;4.90;99.90;;;;;;5102455;28;19938;-71
2020/12/15 03:18:28;;;;;;;;;;;4.80;99.90;;;;;;5092814;28;19963;-71
2020/12/15 03:20:57;;;;;;;;;;;4.80;99.90;;;;;;5091134;28;19925;-78
2020/12/15 03:23:26;;;;;;;;;;;4.70;99.90;;;;;;5093125;28;20288;-71
2020/12/15 03:25:53;;;;;;;;;;;4.70;99.90;;;;;;5096039;27;19938;-76
2020/12/15 03:28:22;;;;;;;;;;;4.80;99.90;;;;;;5103000;28;19927;-70
2020/12/15 03:30:50;;;;;;;;;;;4.80;99.90;;;;;;5107351;28;19924;-70
2020/12/15 03:33:17;;;;;;;;;;;4.80;99.90;;;;;;5103541;28;20010;-70
2020/12/15 03:35:44;;;;;;;;;;;4.90;99.90;;;;;;5106890;28;19974;-70
2020/12/15 03:38:15;;;;;;;;;;;4.90;99.90;;;;;;5101048;28;19925;-70
2020/12/15 03:40:49;;;;;;;;;;;4.90;99.90;;;;;;5095260;27;19931;-70
2020/12/15 03:43:39;;;;;;;;;;;4.90;99.90;;;;;;5093367;28;19924;-70
2020/12/15 03:46:24;;;;;;;;;;;5.00;99.90;;;;;;5099333;28;19920;-72
2020/12/15 03:48:54;;;;;;;;;;;5.10;99.90;;;;;;5103212;28;20019;-70
2020/12/15 03:51:20;;;;;;;;;;;5.00;99.90;;;;;;5104920;27;20459;-69
2020/12/15 03:54:05;;;;;;;;;;;5.00;99.90;;;;;;5103027;28;19930;-70
2020/12/15 03:56:37;;;;;;;;;;;4.90;99.90;;;;;;5111044;28;19969;-70
2020/12/15 03:59:05;;;;;;;;;;;4.90;99.90;;;;;;5092127;28;19924;-78
2020/12/15 04:01:31;;;;;;;;;;;4.90;99.90;;;;;;5098481;28;19928;-72
2020/12/15 04:04:01;;;;;;;;;;;4.90;99.90;;;;;;5106107;28;20304;-77
2020/12/15 04:06:35;;;;;;;;;;;4.90;99.90;;;;;;5094710;28;19971;-70
2020/12/15 04:09:10;;;;;;;;;;;4.90;99.90;;;;;;5096066;28;19928;-71
2020/12/15 04:11:36;;;;;;;;;;;5.00;99.90;;;;;;5101366;28;19924;-71
2020/12/15 04:14:02;;;;;;;;;;;4.90;99.90;;;;;;5109983;28;20010;-75
2020/12/15 04:16:31;;;;;;;;;;;5.00;99.90;;;;;;5111750;28;19935;-71
2020/12/15 04:19:08;;;;;;;;;;;4.90;99.90;;;;;;5120523;27;20269;-71
2020/12/15 04:21:35;;;;;;;;;;;4.80;99.90;;;;;;5113467;27;19932;-71
2020/12/15 04:24:04;;;;;;;;;;;4.80;99.90;;;;;;5110559;27;19924;-71
2020/12/15 04:26:42;;;;;;;;;;;4.80;99.90;;;;;;5106563;28;19927;-70
2020/12/15 04:29:09;;;;;;;;;;;4.80;99.90;;;;;;5113785;28;19988;-71
2020/12/15 04:32:03;;;;;;;;;;;4.80;99.90;;;;;;5111299;27;19924;-74
2020/12/15 04:34:34;;;;;;;;;;;4.90;99.90;;;;;;5110782;28;19924;-70
2020/12/15 04:37:01;;;;;;;;;;;4.90;99.90;;;;;;5103185;28;19923;-78
2020/12/15 04:39:38;;;;;;;;;;;4.80;99.90;;;;;;5106963;28;19931;-71
2020/12/15 04:42:05;;;;;;;;;;;4.90;99.90;;;;;;5103592;27;19998;-71
2020/12/15 04:44:31;;;;;;;;;;;4.80;99.90;;;;;;5099411;28;19957;-71
2020/12/15 04:47:02;;;;;;;;;;;4.90;99.90;;;;;;5112339;28;19924;-79
2020/12/15 04:49:33;;;;;;;;;;;4.90;99.90;;;;;;5097993;28;20022;-71
2020/12/15 04:52:03;;;;;;;;;;;4.90;99.90;;;;;;5105658;27;19927;-72
2020/12/15 04:54:42;;;;;;;;;;;4.90;99.90;;;;;;5113157;28;19924;-71
2020/12/15 04:57:14;;;;;;;;;;;4.90;99.90;;;;;;5105953;28;20015;-70
2020/12/15 04:59:44;;;;;;;;;;;4.90;99.90;;;;;;5113721;28;19972;-70
2020/12/15 05:02:33;;;;;;;;;;;5.00;99.90;;;;;;5100813;28;19927;-70
2020/12/15 05:05:02;;;;;;;;;;;5.00;99.90;;;;;;5103757;28;19931;-73
2020/12/15 05:07:29;;;;;;;;;;;5.00;99.90;;;;;;5099083;28;19928;-71
2020/12/15 05:10:10;;;;;;;;;;;5.10;99.90;;;;;;5099745;28;20023;-70
2020/12/15 05:12:57;;;;;;;;;;;5.10;99.90;;;;;;5108422;27;19923;-70
2020/12/15 05:15:23;;;;;;;;;;;5.20;99.90;;;;;;5110910;28;19927;-72
2020/12/15 05:18:01;;;;;;;;;;;5.30;99.90;;;;;;5095640;28;20331;-72
2020/12/15 05:20:30;;;;;;;;;;;5.20;99.90;;;;;;5094300;28;19924;-71
2020/12/15 05:23:10;;;;;;;;;;;5.30;99.90;;;;;;5092981;28;19928;-70
2020/12/15 05:25:37;;;;;;;;;;;5.20;99.90;;;;;;5092715;28;19924;-71
2020/12/15 05:28:10;;;;;;;;;;;5.20;99.90;;;;;;5101239;28;19924;-71
2020/12/15 05:30:37;;;;;;;;;;;5.30;99.90;;;;;;5112216;28;19924;-70
2020/12/15 05:33:22;;;;;;;;;;;5.30;99.90;;;;;;5110010;27;19926;-71
2020/12/15 05:36:21;;;;;;;;;;;5.40;99.90;;;;;;5112760;27;20743;-70
2020/12/15 05:39:05;;;;;;;;;;;5.30;99.90;;;;;;5102187;28;20014;-80
2020/12/15 05:41:39;;;;;;;;;;;5.20;99.90;;;;;;5101585;28;19989;-70
2020/12/15 05:44:09;;;;;;;;;;;5.20;99.90;;;;;;5095689;28;20391;-71
2020/12/15 05:46:45;;;;;;;;;;;5.20;99.90;;;;;;5105715;28;19931;-71
2020/12/15 05:49:12;;;;;;;;;;;5.20;99.90;;;;;;5089036;27;19924;-71
2020/12/15 05:51:40;;;;;;;;;;;5.10;99.90;;;;;;5097827;27;19931;-70
2020/12/15 05:54:07;;;;;;;;;;;5.10;99.90;;;;;;5101719;28;20287;-71
2020/12/15 05:56:35;;;;;;;;;;;5.10;99.90;;;;;;5112608;27;20380;-71
2020/12/15 05:59:12;;;;;;;;;;;5.10;99.90;;;;;;5110300;28;19924;-77
2020/12/15 06:01:39;;;;;;;;;;;5.10;99.90;;;;;;5105994;28;19931;-71
2020/12/15 06:04:05;;;;;;;;;;;5.10;99.90;;;;;;5109551;27;19959;-71
2020/12/15 06:06:32;;;;;;;;;;;5.10;99.90;;;;;;5111197;28;19923;-70
2020/12/15 06:08:59;;;;;;;;;;;5.10;99.90;;;;;;5109595;27;19939;-72
2020/12/15 06:11:26;;;;;;;;;;;5.10;99.90;;;;;;5110603;28;19923;-70
2020/12/15 06:13:53;;;;;;;;;;;5.10;99.90;;;;;;5110689;28;19923;-72
2020/12/15 06:16:19;;;;;;;;;;;5.20;99.90;;;;;;5097245;28;20539;-71
2020/12/15 06:18:46;;;;;;;;;;;5.10;99.90;;;;;;5103776;28;20017;-71
2020/12/15 06:21:13;;;;;;;;;;;5.10;99.90;;;;;;5112268;28;19924;-69
2020/12/15 06:23:40;;;;;;;;;;;5.10;99.90;;;;;;5095041;27;19928;-70
2020/12/15 06:26:07;;;;;;;;;;;5.10;99.90;;;;;;5104964;27;19934;-71
2020/12/15 06:28:34;;;;;;;;;;;5.10;99.90;;;;;;5113714;28;19927;-69
2020/12/15 06:31:01;;;;;;;;;;;5.20;99.90;;;;;;5109347;27;19924;-70
2020/12/15 06:33:33;;;;;;;;;;;5.10;99.90;;;;;;5112286;28;19976;-73
2020/12/15 06:36:00;;;;;;;;;;;5.20;99.90;;;;;;5109927;27;19931;-75
2020/12/15 06:38:26;;;;;;;;;;;5.10;99.90;;;;;;5112867;28;19923;-70
2020/12/15 06:40:54;;;;;;;;;;;5.10;99.90;;;;;;5107466;27;20403;-74
2020/12/15 06:43:27;;;;;;;;;;;5.20;99.90;;;;;;5095293;28;20015;-71
2020/12/15 06:46:03;;;;;;;;;;;5.10;99.90;;;;;;5102517;27;19924;-71
2020/12/15 06:48:30;;;;;;;;;;;5.10;99.90;;;;;;5112916;28;20393;-71
2020/12/15 06:50:56;;;;;;;;;;;5.20;99.90;;;;;;5108726;28;19924;-71
2020/12/15 06:53:23;;;;;;;;;;;5.10;99.90;;;;;;5107653;28;19928;-71
2020/12/15 06:55:57;;;;;;;;;;;5.10;99.90;;;;;;5106449;28;19931;-75
2020/12/15 06:58:25;;;;;;;;;;;5.10;99.90;;;;;;5109187;27;19963;-71
2020/12/15 07:00:53;;;;;;;;;;;5.10;99.90;;;;;;5105851;28;19976;-71
2020/12/15 07:03:32;;;;;;;;;;;5.10;99.90;;;;;;5110717;28;19972;-71
2020/12/15 07:06:06;;;;;;;;;;;5.10;99.90;;;;;;5107461;28;19924;-72
2020/12/15 07:08:33;;;;;;;;;;;5.10;99.90;;;;;;5093312;28;19924;-71
2020/12/15 07:10:59;;;;;;;;;;;5.10;99.90;;;;;;5107057;27;20288;-79
2020/12/15 07:13:27;;;;;;;;;;;5.10;99.90;;;;;;5111547;28;19980;-71
2020/12/15 07:15:53;;;;;;;;;;;5.20;99.90;;;;;;5095071;28;20031;-71
2020/12/15 07:18:19;;;;;;;;;;;5.20;99.90;;;;;;5111836;28;19920;-71
2020/12/15 07:20:45;;;;;;;;;;;5.20;99.90;;;;;;5112926;28;20026;-71
2020/12/15 07:23:12;;;;;;;;;;;5.30;99.90;;;;;;5109839;28;19923;-71
2020/12/15 07:25:38;;;;;;;;;;;5.20;99.90;;;;;;5106104;28;19931;-70
2020/12/15 07:28:04;;;;;;;;;;;5.20;99.90;;;;;;5105329;28;20321;-70
2020/12/15 07:30:36;;;;;;;;;;;5.20;99.90;;;;;;5110785;28;20332;-69
2020/12/15 07:33:03;;;;;;;;;;;5.20;99.90;;;;;;5105292;28;19924;-71
2020/12/15 07:35:30;;;;;;;;;;;5.20;99.90;;;;;;5092064;28;19977;-70
2020/12/15 07:37:57;;;;;;;;;;;5.20;99.90;;;;;;5105129;28;19923;-70
2020/12/15 07:40:28;;;;;;;;;;;5.20;99.90;;;;;;5112430;28;20392;-70
2020/12/15 07:42:55;;;;;;;;;;;5.20;99.90;;;;;;5109624;28;19924;-70
2020/12/15 07:45:22;;;;;;;;;;;5.20;99.90;;;;;;5097771;28;19928;-70
2020/12/15 07:47:50;;;;;;;;;;;5.20;99.90;;;;;;5107963;28;20436;-72
2020/12/15 07:50:16;;;;;;;;;;;5.30;99.90;;;;;;5108061;28;19975;-71
2020/12/15 07:52:43;;;;;;;;;;;5.30;99.90;;;;;;5099408;28;19930;-70
2020/12/15 07:55:10;;;;;;;;;;;5.30;99.90;;;;;;5103079;28;19928;-72
2020/12/15 07:57:37;;;;;;;;;;;5.30;99.90;;;;;;5099748;28;20380;-70
2020/12/15 08:00:11;;;;;;;;;;;5.30;99.90;;;;;;5102808;28;20151;-73
2020/12/15 08:02:41;;;;;;;;;;;5.40;99.90;;;;;;5104271;28;20022;-77
2020/12/15 08:05:10;;;;;;;;;;;5.30;99.90;;;;;;5100542;28;20018;-73
2020/12/15 08:07:41;;;;;;;;;;;5.30;99.90;;;;;;5102228;28;19927;-72
2020/12/15 08:10:07;;;;;;;;;;;5.30;99.90;;;;;;5102254;28;20371;-72
2020/12/15 08:12:34;;;;;;;;;;;5.30;99.90;;;;;;5105358;27;19997;-71
2020/12/15 08:15:01;;;;;;;;;;;5.30;99.90;;;;;;5104025;27;19924;-73
2020/12/15 08:17:30;;;;;;;;;;;5.30;99.90;;;;;;5107154;27;20368;-76
2020/12/15 08:19:59;;;;;;;;;;;5.30;99.90;;;;;;5109947;27;20438;-71
2020/12/15 08:22:26;;;;;;;;;;;5.30;99.90;;;;;;5110900;27;19930;-70
2020/12/15 08:24:55;;;;;;;;;;;5.20;99.90;;;;;;5112111;27;19938;-69
2020/12/15 08:27:23;;;;;;;;;;;5.20;99.90;;;;;;5113201;27;19923;-72
2020/12/15 08:29:49;;;;;;;;;;;5.20;99.90;;;;;;5103425;27;20380;-71
2020/12/15 08:32:24;;;;;;;;;;;5.20;99.90;;;;;;5110544;27;19931;-70
2020/12/15 08:34:56;;;;;;;;;;;5.20;99.90;;;;;;5112900;28;19924;-69
2020/12/15 08:37:23;;;;;;;;;;;5.20;99.90;;;;;;5109833;27;19969;-72
2020/12/15 08:39:51;;;;;;;;;;;5.20;99.90;;;;;;5112662;28;20088;-70
2020/12/15 08:42:17;;;;;;;;;;;5.20;99.90;;;;;;5112814;28;20046;-72
2020/12/15 08:44:44;;;;;;;;;;;5.30;99.90;;;;;;5110409;28;19923;-71
2020/12/15 08:47:10;;;;;;;;;;;5.40;99.90;;;;;;5113959;28;20368;-72
2020/12/15 08:49:36;;;;;;;;;;;5.40;99.90;;;;;;5098417;28;19924;-71
2020/12/15 08:52:03;;;;;;;;;;;5.50;99.90;;;;;;5108490;27;19962;-79
2020/12/15 08:54:30;;;;;;;;;;;5.50;99.90;;;;;;5094552;28;19996;-74
2020/12/15 08:56:57;;;;;;;;;;;5.50;99.90;;;;;;5113008;27;19927;-70
2020/12/15 08:59:25;;;;;;;;;;;5.50;99.90;;;;;;5109981;28;19964;-73
2020/12/15 09:01:58;;;;;;;;;;;5.50;99.90;;;;;;5109436;27;19931;-71
2020/12/15 09:04:26;;;;;;;;;;;5.50;99.90;;;;;;5113836;27;19928;-72
2020/12/15 09:06:52;;;;;;;;;;;5.50;99.90;;;;;;5110861;27;19923;-70
2020/12/15 09:09:26;;;;;;;;;;;5.50;99.90;;;;;;5100978;28;20160;-72
2020/12/15 09:11:54;;;;;;;;;;;5.50;99.90;;;;;;5112179;27;19960;-72
2020/12/15 09:14:21;;;;;;;;;;;5.50;99.90;;;;;;5108343;28;19930;-70
2020/12/15 09:16:48;;;;;;;;;;;5.60;99.90;;;;;;5102218;27;20322;-70
2020/12/15 09:19:15;;;;;;;;;;;5.60;99.90;;;;;;5101220;28;19924;-70
2020/12/15 09:21:41;;;;;;;;;;;5.60;99.90;;;;;;5095832;27;20702;-71
2020/12/15 09:24:08;;;;;;;;;;;5.60;99.90;;;;;;5110481;27;19936;-74
2020/12/15 09:26:36;;;;;;;;;;;5.70;99.90;;;;;;5107018;28;19957;-70
2020/12/15 09:29:06;;;;;;;;;;;5.60;99.90;;;;;;5112183;27;19924;-72
2020/12/15 09:31:34;;;;;;;;;;;5.60;99.90;;;;;;5093602;27;19960;-72
2020/12/15 09:34:00;;;;;;;;;;;5.60;99.90;;;;;;5111312;28;19928;-73
2020/12/15 09:36:26;;;;;;;;;;;5.70;99.90;;;;;;5110324;27;21149;-69
2020/12/15 09:38:53;;;;;;;;;;;5.70;99.90;;;;;;5091433;28;19974;-70
2020/12/15 09:41:19;;;;;;;;;;;5.70;99.90;;;;;;5104803;27;19924;-74
2020/12/15 09:43:46;;;;;;;;;;;5.80;99.90;;;;;;5113207;28;19924;-71
2020/12/15 09:46:13;;;;;;;;;;;5.80;99.90;;;;;;5112573;28;19923;-71
2020/12/15 09:48:40;;;;;;;;;;;5.80;99.90;;;;;;5111356;28;19928;-71
2020/12/15 09:51:07;;;;;;;;;;;5.80;99.90;;;;;;5112709;28;19939;-71
2020/12/15 09:53:34;;;;;;;;;;;5.80;99.90;;;;;;5109729;27;20060;-71
2020/12/15 09:56:01;;;;;;;;;;;5.90;99.90;;;;;;5111786;27;19928;-71
2020/12/15 09:58:28;;;;;;;;;;;5.90;99.90;;;;;;5107042;28;19924;-71
2020/12/15 10:00:54;;;;;;;;;;;5.90;99.90;;;;;;5098572;28;19928;-72
2020/12/15 10:03:21;;;;;;;;;;;5.90;99.90;;;;;;5110016;27;19935;-71
2020/12/15 10:05:48;;;;;;;;;;;6.10;99.90;;;;;;5113651;28;20027;-71
2020/12/15 10:08:15;;;;;;;;;;;6.20;99.90;;;;;;5111093;27;20397;-73
2020/12/15 10:10:41;;;;;;;;;;;6.10;99.90;;;;;;5113300;28;20435;-71
2020/12/15 10:13:08;;;;;;;;;;;6.20;99.90;;;;;;5110028;27;20265;-72
2020/12/15 10:15:34;;;;;;;;;;;6.30;99.90;;;;;;5113255;27;20337;-72
2020/12/15 10:18:03;;;;;;;;;;;6.30;99.90;;;;;;5108929;28;20307;-73
2020/12/15 10:20:30;;;;;;;;;;;6.30;99.90;;;;;;5112885;27;19930;-70
2020/12/15 10:22:57;;;;;;;;;;;6.20;99.90;;;;;;5099776;27;20408;-72
2020/12/15 10:25:24;;;;;;;;;;;6.20;99.90;;;;;;5112025;28;20330;-72
2020/12/15 10:27:50;;;;;;;;;;;6.10;99.90;;;;;;5109300;27;19934;-71
2020/12/15 10:30:17;;;;;;;;;;;6.10;99.90;;;;;;5109559;27;19951;-70
2020/12/15 10:32:44;;;;;;;;;;;6.10;99.90;;;;;;5110844;28;19924;-71
2020/12/15 10:35:10;;;;;;;;;;;6.10;99.90;;;;;;5108847;28;19928;-71
2020/12/15 10:37:37;;;;;;;;;;;6.10;99.90;;;;;;5113198;28;19961;-71
2020/12/15 10:40:04;;;;;;;;;;;6.10;99.90;;;;;;5109913;28;20018;-72
2020/12/15 10:42:30;;;;;;;;;;;6.20;99.90;;;;;;5111465;27;19976;-71
2020/12/15 10:44:57;;;;;;;;;;;6.20;99.90;;;;;;5110827;28;19932;-71
2020/12/15 10:47:23;;;;;;;;;;;6.20;99.90;;;;;;5112510;28;19924;-71
2020/12/15 10:49:50;;;;;;;;;;;6.30;99.90;;;;;;5100570;28;19928;-74
2020/12/15 10:52:17;;;;;;;;;;;6.30;99.90;;;;;;5104480;28;19931;-71
2020/12/15 10:54:44;;;;;;;;;;;6.30;99.90;;;;;;5105934;28;19969;-70
2020/12/15 10:57:11;;;;;;;;;;;6.40;99.90;;;;;;5112104;28;19939;-70
2020/12/15 10:59:38;;;;;;;;;;;6.40;99.90;;;;;;5106875;28;19924;-70
2020/12/15 11:02:05;;;;;;;;;;;6.40;99.90;;;;;;5111361;28;20408;-70
2020/12/15 11:04:32;;;;;;;;;;;6.50;99.90;;;;;;5110882;28;20447;-77
2020/12/15 11:06:58;;;;;;;;;;;6.40;99.90;;;;;;5108035;28;20387;-78
2020/12/15 11:09:26;;;;;;;;;;;6.50;99.90;;;;;;5090527;28;19931;-70
2020/12/15 11:11:53;;;;;;;;;;;6.50;99.90;;;;;;5105686;28;20391;-70
2020/12/15 11:14:21;;;;;;;;;;;6.60;99.90;;;;;;5110343;28;19920;-70
2020/12/15 11:16:47;;;;;;;;;;;6.70;99.90;;;;;;5104893;28;20398;-71
2020/12/15 11:19:14;;;;;;;;;;;6.60;99.90;;;;;;5102592;28;20001;-70
2020/12/15 11:21:41;;;;;;;;;;;6.60;99.90;;;;;;5109307;28;19959;-70
2020/12/15 11:24:07;;;;;;;;;;;6.40;99.90;;;;;;5111908;28;19931;-71
2020/12/15 11:26:34;;;;;;;;;;;6.50;99.90;;;;;;5093412;28;19923;-71
2020/12/15 11:29:00;;;;;;;;;;;6.50;99.90;;;;;;5095032;28;19928;-72
2020/12/15 11:31:28;;;;;;;;;;;6.40;99.90;;;;;;5109201;28;19924;-74
2020/12/15 11:33:54;;;;;;;;;;;6.40;99.90;;;;;;5098289;28;19985;-77
2020/12/15 11:36:21;;;;;;;;;;;6.40;99.90;;;;;;5093166;28;20399;-71
2020/12/15 11:38:48;;;;;;;;;;;6.50;99.90;;;;;;5092445;28;19947;-71
2020/12/15 11:41:14;;;;;;;;;;;6.40;99.90;;;;;;5091644;28;19928;-71
2020/12/15 11:43:40;;;;;;;;;;;6.40;99.90;;;;;;5111759;28;20283;-71
2020/12/15 11:46:07;;;;;;;;;;;6.40;99.90;;;;;;5094019;28;20389;-74
2020/12/15 11:48:34;;;;;;;;;;;6.40;99.90;;;;;;5113502;28;20029;-71
2020/12/15 11:51:00;;;;;;;;;;;6.40;99.90;;;;;;5115583;27;19935;-71
2020/12/15 11:53:29;;;;;;;;;;;6.30;99.90;;;;;;5106335;28;19993;-72
2020/12/15 11:55:56;;;;;;;;;;;6.40;99.90;;;;;;5102699;28;19924;-70
2020/12/15 11:58:23;;;;;;;;;;;6.40;99.90;;;;;;5109636;28;20335;-74
2020/12/15 12:00:49;;;;;;;;;;;6.50;99.90;;;;;;5115641;27;20257;-72
2020/12/15 12:03:15;;;;;;;;;;;6.40;99.90;;;;;;5101721;27;20361;-70
2020/12/15 12:05:42;;;;;;;;;;;6.40;99.90;;;;;;5102601;27;20330;-70
2020/12/15 12:08:09;;;;;;;;;;;6.50;99.90;;;;;;5100534;28;19969;-70
2020/12/15 12:10:35;;;;;;;;;;;6.50;99.90;;;;;;5106210;27;20007;-75
2020/12/15 12:13:02;;;;;;;;;;;6.40;99.90;;;;;;5111661;27;20000;-71
2020/12/15 12:15:29;;;;;;;;;;;6.40;99.90;;;;;;5108606;27;20387;-72
2020/12/15 12:17:56;;;;;;;;;;;6.40;99.90;;;;;;5105625;27;20019;-71
2020/12/15 12:20:22;;;;;;;;;;;6.40;99.90;;;;;;5115343;28;20053;-71
2020/12/15 12:22:50;;;;;;;;;;;6.40;99.90;;;;;;5113079;27;19924;-70
2020/12/15 12:25:16;;;;;;;;;;;6.40;99.90;;;;;;5103532;27;19927;-72
2020/12/15 12:27:42;;;;;;;;;;;6.40;99.90;;;;;;5108082;27;20030;-73
2020/12/15 12:30:09;;;;;;;;;;;6.40;99.90;;;;;;5103017;27;20058;-77
2020/12/15 12:32:35;;;;;;;;;;;6.40;99.90;;;;;;5098719;28;20060;-72
2020/12/15 12:35:01;;;;;;;;;;;6.40;99.90;;;;;;5107806;27;20410;-78
2020/12/15 12:37:28;;;;;;;;;;;6.40;99.90;;;;;;5110702;27;20355;-76
2020/12/15 12:39:55;;;;;;;;;;;6.40;99.90;;;;;;5107342;28;19923;-71
2020/12/15 12:42:21;;;;;;;;;;;6.40;99.90;;;;;;5113297;28;19920;-72
2020/12/15 12:44:48;;;;;;;;;;;6.30;99.90;;;;;;5110579;28;19923;-71
2020/12/15 12:47:14;;;;;;;;;;;6.30;99.90;;;;;;5110756;27;19927;-74
2020/12/15 12:49:40;;;;;;;;;;;6.30;99.90;;;;;;5108563;27;20819;-74
2020/12/15 12:52:07;;;;;;;;;;;6.40;99.90;;;;;;5102372;27;19928;-73
2020/12/15 12:54:33;;;;;;;;;;;6.40;99.90;;;;;;5111583;27;19931;-72
2020/12/15 12:57:00;;;;;;;;;;;6.40;99.90;;;;;;5112563;27;19931;-77
2020/12/15 12:59:27;;;;;;;;;;;6.40;99.90;;;;;;5110574;27;19946;-74
2020/12/15 13:01:53;;;;;;;;;;;6.50;99.90;;;;;;5108419;28;20308;-72
2020/12/15 13:04:19;;;;;;;;;;;6.50;99.90;;;;;;5110944;28;19924;-73
2020/12/15 13:06:48;;;;;;;;;;;6.60;99.90;;;;;;5111574;27;19930;-73
2020/12/15 13:09:14;;;;;;;;;;;6.50;99.90;;;;;;5111652;27;19924;-73
2020/12/15 13:11:41;;;;;;;;;;;6.50;99.90;;;;;;5103368;27;19981;-75
2020/12/15 13:14:08;;;;;;;;;;;6.50;99.90;;;;;;5103441;27;19932;-74
2020/12/15 13:16:34;;;;;;;;;;;6.60;99.90;;;;;;5101550;27;20415;-76
2020/12/15 13:19:02;;;;;;;;;;;6.60;99.90;;;;;;5106813;27;20413;-72
2020/12/15 13:21:29;;;;;;;;;;;6.60;99.90;;;;;;5109980;28;19931;-73
2020/12/15 13:23:55;;;;;;;;;;;6.50;99.90;;;;;;5111476;28;20022;-72
2020/12/15 13:26:22;;;;;;;;;;;6.50;99.90;;;;;;5098864;28;19923;-72
2020/12/15 13:28:48;;;;;;;;;;;6.60;99.90;;;;;;5109870;28;19924;-73
2020/12/15 13:31:16;;;;;;;;;;;6.60;99.90;;;;;;5109898;28;20387;-72
2020/12/15 13:33:43;;;;;;;;;;;6.60;99.90;;;;;;5099027;28;19924;-72
2020/12/15 13:36:10;;;;;;;;;;;6.60;99.90;;;;;;5108731;27;20014;-72
2020/12/15 13:38:39;;;;;;;;;;;6.70;99.90;;;;;;5105447;28;19973;-72
2020/12/15 13:41:06;;;;;;;;;;;6.60;99.90;;;;;;5090752;28;20356;-75
2020/12/15 13:43:33;;;;;;;;;;;6.80;99.90;;;;;;5108226;28;19932;-73
2020/12/15 13:46:00;;;;;;;;;;;6.80;99.90;;;;;;5108108;28;19924;-82
2020/12/15 13:48:27;;;;;;;;;;;6.80;99.90;;;;;;5091943;28;19932;-73
2020/12/15 13:50:54;;;;;;;;;;;6.80;99.90;;;;;;5110620;28;19930;-72
2020/12/15 13:53:20;;;;;;;;;;;6.90;99.90;;;;;;5093099;28;19919;-71
2020/12/15 13:55:47;;;;;;;;;;;6.90;99.90;;;;;;5104084;28;20468;-71
2020/12/15 13:58:14;;;;;;;;;;;6.90;99.90;;;;;;5113100;28;19924;-73
2020/12/15 14:00:41;;;;;;;;;;;6.90;99.90;;;;;;5087328;28;19927;-72
2020/12/15 14:03:09;;;;;;;;;;;6.90;99.90;;;;;;5112380;28;20334;-72
2020/12/15 14:05:36;;;;;;;;;;;6.90;99.90;;;;;;5090593;28;20261;-72
2020/12/15 14:08:03;;;;;;;;;;;6.90;99.90;;;;;;5097296;28;20028;-73
2020/12/15 14:10:29;;;;;;;;;;;7.00;99.90;;;;;;5106718;28;19924;-72
2020/12/15 14:12:55;;;;;;;;;;;7.00;99.90;;;;;;5100276;28;19924;-72
2020/12/15 14:15:23;;;;;;;;;;;6.90;99.90;;;;;;5099854;28;20288;-72
2020/12/15 14:17:49;;;;;;;;;;;6.90;99.90;;;;;;5103636;28;19955;-72
2020/12/15 14:20:16;;;;;;;;;;;6.90;99.90;;;;;;5099878;28;19924;-72
2020/12/15 14:22:43;;;;;;;;;;;7.00;99.90;;;;;;5096801;28;20311;-73
2020/12/15 14:25:10;;;;;;;;;;;7.00;99.90;;;;;;5091775;28;20022;-71
2020/12/15 14:27:36;;;;;;;;;;;7.00;99.90;;;;;;5099631;28;20287;-72
2020/12/15 14:30:03;;;;;;;;;;;7.00;99.90;;;;;;5107939;28;20053;-72
2020/12/15 14:32:29;;;;;;;;;;;7.00;99.90;;;;;;5107598;28;19977;-72
2020/12/15 14:34:56;;;;;;;;;;;7.00;99.90;;;;;;5107735;28;19923;-73
2020/12/15 14:37:23;;;;;;;;;;;7.00;99.90;;;;;;5098135;28;20047;-71
2020/12/15 14:39:50;;;;;;;;;;;7.00;99.90;;;;;;5105918;28;20023;-72